sensor_id;sensor_type;location;lat;lon;timestamp;pressure;altitude;pressure_sealevel;temperature;humidity
23241;BME280;11789;53.482;9.862;2024-03-02T00:00:18;100512.16;;;7.41;100.00
23241;BME280;11789;53.482;9.862;2024-03-02T00:02:47;100516.47;;;7.41;100.00
23241;BME280;11789;53.482;9.862;2024-03-02T00:05:15;100510.47;;;7.40;100.00
23241;BME280;11789;53.482;9.862;2024-03-02T00:07:55;100509.56;;;7.38;100.00
23241;BME280;11789;53.482;9.862;2024-03-02T00:10:24;100510.44;;;7.37;100.00
23241;BME280;11789;53.482;9.862;2024-03-02T00:12:54;100513.84;;;7.36;100.00
23241;BME280;11789;53.482;9.862;2024-03-02T00:17:58;100502.69;;;7.33;100.00
23241;BME280;11789;53.482;9.862;2024-03-02T00:20:25;100506.09;;;7.32;100.00
23241;BME280;11789;53.482;9.862;2024-03-02T00:23:03;100499.25;;;7.31;100.00
23241;BME280;11789;53.482;9.862;2024-03-02T00:25:46;100499.22;;;7.29;100.00
23241;BME280;11789;53.482;9.862;2024-03-02T00:28:22;100503.53;;;7.33;100.00
23241;BME280;11789;53.482;9.862;2024-03-02T00:30:59;100500.09;;;7.33;100.00
23241;BME280;11789;53.482;9.862;2024-03-02T00:33:30;100499.25;;;7.32;100.00
23241;BME280;11789;53.482;9.862;2024-03-02T00:35:57;100492.38;;;7.31;100.00
23241;BME280;11789;53.482;9.862;2024-03-02T00:38:22;100492.38;;;7.31;100.00
23241;BME280;11789;53.482;9.862;2024-03-02T00:40:48;100494.09;;;7.32;100.00
23241;BME280;11789;53.482;9.862;2024-03-02T00:43:52;100485.53;;;7.30;100.00
23241;BME280;11789;53.482;9.862;2024-03-02T00:46:20;100490.69;;;7.30;100.00
23241;BME280;11789;53.482;9.862;2024-03-02T00:48:57;100489.78;;;7.28;100.00
23241;BME280;11789;53.482;9.862;2024-03-02T00:51:25;100488.94;;;7.27;100.00
23241;BME280;11789;53.482;9.862;2024-03-02T00:53:55;100500.06;;;7.26;100.00
23241;BME280;11789;53.482;9.862;2024-03-02T00:56:22;100491.47;;;7.24;100.00
23241;BME280;11789;53.482;9.862;2024-03-02T00:58:49;100494.91;;;7.23;100.00
23241;BME280;11789;53.482;9.862;2024-03-02T01:01:15;100496.59;;;7.23;100.00
23241;BME280;11789;53.482;9.862;2024-03-02T01:03:41;100494.91;;;7.22;100.00
23241;BME280;11789;53.482;9.862;2024-03-02T01:06:08;100494.03;;;7.23;100.00
23241;BME280;11789;53.482;9.862;2024-03-02T01:08:37;100491.47;;;7.23;100.00
23241;BME280;11789;53.482;9.862;2024-03-02T01:11:03;100500.03;;;7.22;100.00
23241;BME280;11789;53.482;9.862;2024-03-02T01:13:29;100509.47;;;7.23;100.00
23241;BME280;11789;53.482;9.862;2024-03-02T01:15:55;100505.16;;;7.19;100.00
23241;BME280;11789;53.482;9.862;2024-03-02T01:18:21;100500.84;;;7.18;100.00
23241;BME280;11789;53.482;9.862;2024-03-02T01:20:47;100502.56;;;7.16;100.00
23241;BME280;11789;53.482;9.862;2024-03-02T01:23:13;100496.53;;;7.14;100.00
23241;BME280;11789;53.482;9.862;2024-03-02T01:25:38;100495.69;;;7.13;100.00
23241;BME280;11789;53.482;9.862;2024-03-02T01:28:04;100499.09;;;7.12;100.00
23241;BME280;11789;53.482;9.862;2024-03-02T01:30:30;100492.25;;;7.11;100.00
23241;BME280;11789;53.482;9.862;2024-03-02T01:32:56;100492.25;;;7.10;100.00
23241;BME280;11789;53.482;9.862;2024-03-02T01:35:21;100487.94;;;7.09;100.00
23241;BME280;11789;53.482;9.862;2024-03-02T01:37:46;100489.66;;;7.07;100.00
23241;BME280;11789;53.482;9.862;2024-03-02T01:40:12;100491.34;;;7.06;100.00
23241;BME280;11789;53.482;9.862;2024-03-02T01:42:38;100491.34;;;7.06;100.00
23241;BME280;11789;53.482;9.862;2024-03-02T01:45:08;100491.34;;;7.05;100.00
23241;BME280;11789;53.482;9.862;2024-03-02T01:47:34;100482.75;;;7.02;100.00
23241;BME280;11789;53.482;9.862;2024-03-02T01:50:00;100485.31;;;7.02;100.00
23241;BME280;11789;53.482;9.862;2024-03-02T01:52:27;100480.19;;;7.01;100.00
23241;BME280;11789;53.482;9.862;2024-03-02T01:54:52;100476.72;;;6.99;100.00
23241;BME280;11789;53.482;9.862;2024-03-02T01:57:18;100476.72;;;6.96;100.00
23241;BME280;11789;53.482;9.862;2024-03-02T01:59:45;100480.13;;;6.95;100.00
23241;BME280;11789;53.482;9.862;2024-03-02T02:02:13;100469.81;;;6.93;100.00
23241;BME280;11789;53.482;9.862;2024-03-02T02:04:38;100471.53;;;6.91;100.00
23241;BME280;11789;53.482;9.862;2024-03-02T02:07:04;100465.53;;;6.91;100.00
23241;BME280;11789;53.482;9.862;2024-03-02T02:09:29;100465.50;;;6.89;100.00
23241;BME280;11789;53.482;9.862;2024-03-02T02:11:55;100468.94;;;6.87;100.00
23241;BME280;11789;53.482;9.862;2024-03-02T02:14:21;100469.78;;;6.87;100.00
23241;BME280;11789;53.482;9.862;2024-03-02T02:16:46;100456.91;;;6.84;100.00
23241;BME280;11789;53.482;9.862;2024-03-02T02:19:11;100457.78;;;6.85;100.00
23241;BME280;11789;53.482;9.862;2024-03-02T02:21:37;100462.03;;;6.84;100.00
23241;BME280;11789;53.482;9.862;2024-03-02T02:24:02;100458.63;;;6.84;100.00
23241;BME280;11789;53.482;9.862;2024-03-02T02:26:29;100450.06;;;6.83;100.00
23241;BME280;11789;53.482;9.862;2024-03-02T02:28:54;100444.91;;;6.83;100.00
23241;BME280;11789;53.482;9.862;2024-03-02T02:31:20;100444.06;;;6.81;100.00
23241;BME280;11789;53.482;9.862;2024-03-02T02:33:45;100447.47;;;6.80;100.00
23241;BME280;11789;53.482;9.862;2024-03-02T02:36:11;100438.88;;;6.78;100.00
23241;BME280;11789;53.482;9.862;2024-03-02T02:38:41;100426.94;;;6.82;100.00
23241;BME280;11789;53.482;9.862;2024-03-02T02:41:08;100436.34;;;6.81;100.00
23241;BME280;11789;53.482;9.862;2024-03-02T02:43:33;100437.19;;;6.82;100.00
23241;BME280;11789;53.482;9.862;2024-03-02T02:45:59;100438.06;;;6.82;100.00
23241;BME280;11789;53.482;9.862;2024-03-02T02:48:24;100440.63;;;6.82;100.00
23241;BME280;11789;53.482;9.862;2024-03-02T02:50:50;100437.19;;;6.82;100.00
23241;BME280;11789;53.482;9.862;2024-03-02T02:53:15;100441.47;;;6.83;100.00
23241;BME280;11789;53.482;9.862;2024-03-02T02:55:40;100440.63;;;6.81;100.00
23241;BME280;11789;53.482;9.862;2024-03-02T02:58:06;100447.47;;;6.80;100.00
23241;BME280;11789;53.482;9.862;2024-03-02T03:00:33;100436.31;;;6.78;100.00
23241;BME280;11789;53.482;9.862;2024-03-02T03:02:58;100429.44;;;6.77;100.00
23241;BME280;11789;53.482;9.862;2024-03-02T03:05:23;100433.75;;;6.78;100.00
23241;BME280;11789;53.482;9.862;2024-03-02T03:07:49;100433.75;;;6.78;100.00
23241;BME280;11789;53.482;9.862;2024-03-02T03:10:16;100430.31;;;6.78;100.00
23241;BME280;11789;53.482;9.862;2024-03-02T03:12:42;100427.75;;;6.78;100.00
23241;BME280;11789;53.482;9.862;2024-03-02T03:15:09;100433.72;;;6.76;100.00
23241;BME280;11789;53.482;9.862;2024-03-02T03:17:35;100430.28;;;6.73;100.00
23241;BME280;11789;53.482;9.862;2024-03-02T03:20:02;100439.69;;;6.72;100.00
23241;BME280;11789;53.482;9.862;2024-03-02T03:22:29;100431.97;;;6.71;100.00
23241;BME280;11789;53.482;9.862;2024-03-02T03:24:55;100431.09;;;6.69;100.00
23241;BME280;11789;53.482;9.862;2024-03-02T03:27:21;100431.09;;;6.69;100.00
23241;BME280;11789;53.482;9.862;2024-03-02T03:29:46;100436.22;;;6.67;100.00
23241;BME280;11789;53.482;9.862;2024-03-02T03:32:12;100422.53;;;6.67;100.00
23241;BME280;11789;53.482;9.862;2024-03-02T03:34:37;100435.38;;;6.65;100.00
23241;BME280;11789;53.482;9.862;2024-03-02T03:37:03;100428.50;;;6.64;100.00
23241;BME280;11789;53.482;9.862;2024-03-02T03:39:28;100431.09;;;6.64;100.00
23241;BME280;11789;53.482;9.862;2024-03-02T03:41:54;100434.50;;;6.65;100.00
23241;BME280;11789;53.482;9.862;2024-03-02T03:44:20;100426.75;;;6.63;100.00
23241;BME280;11789;53.482;9.862;2024-03-02T03:46:45;100425.91;;;6.63;100.00
23241;BME280;11789;53.482;9.862;2024-03-02T03:49:10;100422.47;;;6.61;100.00
23241;BME280;11789;53.482;9.862;2024-03-02T03:51:36;100427.63;;;6.64;100.00
23241;BME280;11789;53.482;9.862;2024-03-02T03:54:01;100419.06;;;6.62;100.00
23241;BME280;11789;53.482;9.862;2024-03-02T03:56:27;100424.19;;;6.63;100.00
23241;BME280;11789;53.482;9.862;2024-03-02T03:58:52;100425.91;;;6.63;100.00
23241;BME280;11789;53.482;9.862;2024-03-02T04:01:18;100421.62;;;6.63;100.00
23241;BME280;11789;53.482;9.862;2024-03-02T04:03:43;100415.63;;;6.61;100.00
23241;BME280;11789;53.482;9.862;2024-03-02T04:06:09;100421.62;;;6.60;100.00
23241;BME280;11789;53.482;9.862;2024-03-02T04:08:34;100419.91;;;6.62;100.00
23241;BME280;11789;53.482;9.862;2024-03-02T04:10:59;100422.47;;;6.61;100.00
23241;BME280;11789;53.482;9.862;2024-03-02T04:13:25;100420.78;;;6.61;100.00
23241;BME280;11789;53.482;9.862;2024-03-02T04:15:50;100414.78;;;6.61;100.00
23241;BME280;11789;53.482;9.862;2024-03-02T04:18:16;100413.87;;;6.59;100.00
23241;BME280;11789;53.482;9.862;2024-03-02T04:20:41;100413.87;;;6.59;100.00
23241;BME280;11789;53.482;9.862;2024-03-02T04:23:07;100417.34;;;6.59;100.00
23241;BME280;11789;53.482;9.862;2024-03-02T04:25:33;100416.44;;;6.59;100.00
23241;BME280;11789;53.482;9.862;2024-03-02T04:27:58;100411.31;;;6.59;100.00
23241;BME280;11789;53.482;9.862;2024-03-02T04:30:24;100421.59;;;6.59;100.00
23241;BME280;11789;53.482;9.862;2024-03-02T04:32:50;100431.03;;;6.61;100.00
23241;BME280;11789;53.482;9.862;2024-03-02T04:35:16;100427.63;;;6.61;100.00
23241;BME280;11789;53.482;9.862;2024-03-02T04:37:41;100427.63;;;6.61;100.00
23241;BME280;11789;53.482;9.862;2024-03-02T04:40:08;100434.47;;;6.60;100.00
23241;BME280;11789;53.482;9.862;2024-03-02T04:42:34;100425.91;;;6.60;100.00
23241;BME280;11789;53.482;9.862;2024-03-02T04:44:59;100429.34;;;6.62;100.00
23241;BME280;11789;53.482;9.862;2024-03-02T04:47:25;100431.91;;;6.63;100.00
23241;BME280;11789;53.482;9.862;2024-03-02T04:49:50;100424.19;;;6.63;100.00
23241;BME280;11789;53.482;9.862;2024-03-02T04:52:16;100420.78;;;6.63;100.00
23241;BME280;11789;53.482;9.862;2024-03-02T04:54:42;100424.19;;;6.62;100.00
23241;BME280;11789;53.482;9.862;2024-03-02T04:57:26;100433.59;;;6.60;100.00
23241;BME280;11789;53.482;9.862;2024-03-02T04:59:52;100424.19;;;6.62;100.00
23241;BME280;11789;53.482;9.862;2024-03-02T05:02:17;100424.19;;;6.62;100.00
23241;BME280;11789;53.482;9.862;2024-03-02T05:04:42;100416.50;;;6.60;100.00
23241;BME280;11789;53.482;9.862;2024-03-02T05:07:08;100419.06;;;6.60;100.00
23241;BME280;11789;53.482;9.862;2024-03-02T05:09:33;100417.34;;;6.59;100.00
23241;BME280;11789;53.482;9.862;2024-03-02T05:11:59;100422.47;;;6.61;100.00
23241;BME280;11789;53.482;9.862;2024-03-02T05:14:43;100421.62;;;6.62;100.00
23241;BME280;11789;53.482;9.862;2024-03-02T05:17:08;100422.47;;;6.61;100.00
23241;BME280;11789;53.482;9.862;2024-03-02T05:19:34;100420.78;;;6.63;100.00
23241;BME280;11789;53.482;9.862;2024-03-02T05:21:59;100424.19;;;6.63;100.00
23241;BME280;11789;53.482;9.862;2024-03-02T05:24:24;100419.09;;;6.65;100.00
23241;BME280;11789;53.482;9.862;2024-03-02T05:26:52;100422.53;;;6.65;100.00
23241;BME280;11789;53.482;9.862;2024-03-02T05:29:18;100422.53;;;6.67;100.00
23241;BME280;11789;53.482;9.862;2024-03-02T05:31:44;100422.53;;;6.67;100.00
23241;BME280;11789;53.482;9.862;2024-03-02T05:34:09;100418.25;;;6.67;100.00
23241;BME280;11789;53.482;9.862;2024-03-02T05:36:34;100415.69;;;6.69;100.00
23241;BME280;11789;53.482;9.862;2024-03-02T05:39:00;100418.28;;;6.70;100.00
23241;BME280;11789;53.482;9.862;2024-03-02T05:41:26;100418.25;;;6.69;100.00
23241;BME280;11789;53.482;9.862;2024-03-02T05:43:52;100413.97;;;6.68;100.00
23241;BME280;11789;53.482;9.862;2024-03-02T05:46:17;100419.94;;;6.67;100.00
23241;BME280;11789;53.482;9.862;2024-03-02T05:48:42;100420.81;;;6.67;100.00
23241;BME280;11789;53.482;9.862;2024-03-02T05:51:08;100425.09;;;6.67;100.00
23241;BME280;11789;53.482;9.862;2024-03-02T05:53:33;100426.81;;;6.66;100.00
23241;BME280;11789;53.482;9.862;2024-03-02T05:55:59;100419.91;;;6.64;100.00
23241;BME280;11789;53.482;9.862;2024-03-02T05:58:24;100430.22;;;6.65;100.00
23241;BME280;11789;53.482;9.862;2024-03-02T06:01:08;100428.50;;;6.64;100.00
23241;BME280;11789;53.482;9.862;2024-03-02T06:03:33;100437.06;;;6.65;100.00
23241;BME280;11789;53.482;9.862;2024-03-02T06:05:59;100437.88;;;6.59;100.00
23241;BME280;11789;53.482;9.862;2024-03-02T06:08:25;100433.53;;;6.52;100.00
23241;BME280;11789;53.482;9.862;2024-03-02T06:10:50;100430.91;;;6.47;100.00
23241;BME280;11789;53.482;9.862;2024-03-02T06:13:15;100432.63;;;6.45;100.00
23241;BME280;11789;53.482;9.862;2024-03-02T06:15:41;100431.72;;;6.42;100.00
23241;BME280;11789;53.482;9.862;2024-03-02T06:18:06;100425.69;;;6.38;100.00
23241;BME280;11789;53.482;9.862;2024-03-02T06:20:33;100422.25;;;6.35;100.00
23241;BME280;11789;53.482;9.862;2024-03-02T06:22:58;100425.62;;;6.29;100.00
23241;BME280;11789;53.482;9.862;2024-03-02T06:25:24;100418.75;;;6.27;100.00
23241;BME280;11789;53.482;9.862;2024-03-02T06:27:49;100418.75;;;6.25;100.00
23241;BME280;11789;53.482;9.862;2024-03-02T06:30:15;100420.41;;;6.23;100.00
23241;BME280;11789;53.482;9.862;2024-03-02T06:32:40;100412.69;;;6.18;100.00
23241;BME280;11789;53.482;9.862;2024-03-02T06:35:06;100425.50;;;6.17;100.00
23241;BME280;11789;53.482;9.862;2024-03-02T06:37:36;100428.91;;;6.14;100.00
23241;BME280;11789;53.482;9.862;2024-03-02T06:40:01;100427.16;;;6.12;100.00
23241;BME280;11789;53.482;9.862;2024-03-02T06:42:27;100428.00;;;6.12;100.00
23241;BME280;11789;53.482;9.862;2024-03-02T06:44:58;100430.56;;;6.11;100.00
23241;BME280;11789;53.482;9.862;2024-03-02T06:47:23;100424.56;;;6.10;100.00
23241;BME280;11789;53.482;9.862;2024-03-02T06:49:48;100430.53;;;6.08;100.00
23241;BME280;11789;53.482;9.862;2024-03-02T06:52:14;100442.53;;;6.09;100.00
23241;BME280;11789;53.482;9.862;2024-03-02T06:54:39;100450.25;;;6.12;100.00
23241;BME280;11789;53.482;9.862;2024-03-02T06:57:05;100450.28;;;6.15;100.00
23241;BME280;11789;53.482;9.862;2024-03-02T06:59:30;100456.34;;;6.20;100.00
23241;BME280;11789;53.482;9.862;2024-03-02T07:01:55;100472.66;;;6.27;100.00
23241;BME280;11789;53.482;9.862;2024-03-02T07:04:22;100474.37;;;6.28;100.00
23241;BME280;11789;53.482;9.862;2024-03-02T07:06:47;100473.59;;;6.36;100.00
23241;BME280;11789;53.482;9.862;2024-03-02T07:09:12;100467.63;;;6.36;100.00
23241;BME280;11789;53.482;9.862;2024-03-02T07:11:38;100481.31;;;6.36;100.00
23241;BME280;11789;53.482;9.862;2024-03-02T07:14:03;100476.22;;;6.39;100.00
23241;BME280;11789;53.482;9.862;2024-03-02T07:16:29;100483.12;;;6.46;100.00
23241;BME280;11789;53.482;9.862;2024-03-02T07:18:58;100471.16;;;6.48;100.00
23241;BME280;11789;53.482;9.862;2024-03-02T07:21:24;100471.94;;;6.43;100.00
23241;BME280;11789;53.482;9.862;2024-03-02T07:23:50;100470.25;;;6.43;100.00
23241;BME280;11789;53.482;9.862;2024-03-02T07:26:16;100468.63;;;6.52;100.00
23241;BME280;11789;53.482;9.862;2024-03-02T07:28:44;100479.88;;;6.67;100.00
23241;BME280;11789;53.482;9.862;2024-03-02T07:31:09;100468.84;;;6.76;100.00
23241;BME280;11789;53.482;9.862;2024-03-02T07:33:35;100467.19;;;6.81;100.00
23241;BME280;11789;53.482;9.862;2024-03-02T07:36:01;100478.34;;;6.86;100.00
23241;BME280;11789;53.482;9.862;2024-03-02T07:38:31;100480.97;;;6.92;100.00
23241;BME280;11789;53.482;9.862;2024-03-02T07:40:57;100469.91;;;7.02;100.00
23241;BME280;11789;53.482;9.862;2024-03-02T07:43:23;100483.69;;;7.12;100.00
23241;BME280;11789;53.482;9.862;2024-03-02T07:45:48;100489.72;;;7.19;100.00
23241;BME280;11789;53.482;9.862;2024-03-02T07:48:14;100486.31;;;7.21;100.00
23241;BME280;11789;53.482;9.862;2024-03-02T07:50:40;100492.28;;;7.17;100.00
23241;BME280;11789;53.482;9.862;2024-03-02T07:53:06;100491.44;;;7.17;100.00
23241;BME280;11789;53.482;9.862;2024-03-02T07:55:32;100502.53;;;7.14;100.00
23241;BME280;11789;53.482;9.862;2024-03-02T07:57:58;100499.09;;;7.14;100.00
23241;BME280;11789;53.482;9.862;2024-03-02T08:00:24;100504.25;;;7.14;100.00
23241;BME280;11789;53.482;9.862;2024-03-02T08:02:51;100506.00;;;7.18;100.00
23241;BME280;11789;53.482;9.862;2024-03-02T08:05:17;100501.75;;;7.20;100.00
23241;BME280;11789;53.482;9.862;2024-03-02T08:07:44;100498.31;;;7.24;100.00
23241;BME280;11789;53.482;9.862;2024-03-02T08:10:10;100512.06;;;7.26;100.00
23241;BME280;11789;53.482;9.862;2024-03-02T08:12:36;100506.94;;;7.29;100.00
23241;BME280;11789;53.482;9.862;2024-03-02T08:15:01;100506.97;;;7.32;100.00
23241;BME280;11789;53.482;9.862;2024-03-02T08:17:27;100511.25;;;7.33;100.00
23241;BME280;11789;53.482;9.862;2024-03-02T08:19:53;100516.44;;;7.36;100.00
23241;BME280;11789;53.482;9.862;2024-03-02T08:22:19;100516.44;;;7.38;100.00
23241;BME280;11789;53.482;9.862;2024-03-02T08:24:44;100511.31;;;7.41;100.00
23241;BME280;11789;53.482;9.862;2024-03-02T08:27:10;100517.31;;;7.44;100.00
23241;BME280;11789;53.482;9.862;2024-03-02T08:29:36;100517.38;;;7.50;100.00
23241;BME280;11789;53.482;9.862;2024-03-02T08:32:01;100524.28;;;7.59;100.00
23241;BME280;11789;53.482;9.862;2024-03-02T08:34:27;100526.91;;;7.68;100.00
23241;BME280;11789;53.482;9.862;2024-03-02T08:36:53;100515.81;;;7.77;100.00
23241;BME280;11789;53.482;9.862;2024-03-02T08:39:18;100520.12;;;7.89;100.00
23241;BME280;11789;53.482;9.862;2024-03-02T08:41:45;100521.09;;;8.07;100.00
23241;BME280;11789;53.482;9.862;2024-03-02T08:44:12;100527.09;;;8.16;100.00
23241;BME280;11789;53.482;9.862;2024-03-02T08:46:38;100526.31;;;8.27;100.00
23241;BME280;11789;53.482;9.862;2024-03-02T08:49:04;100523.75;;;8.33;100.00
23241;BME280;11789;53.482;9.862;2024-03-02T08:51:30;100522.09;;;8.45;100.00
23241;BME280;11789;53.482;9.862;2024-03-02T08:53:56;100518.72;;;8.95;100.00
23241;BME280;11789;53.482;9.862;2024-03-02T08:56:22;100513.47;;;9.79;100.00
23241;BME280;11789;53.482;9.862;2024-03-02T08:58:49;100512.63;;;9.69;99.63
23241;BME280;11789;53.482;9.862;2024-03-02T09:01:15;100513.53;;;9.39;100.00
23241;BME280;11789;53.482;9.862;2024-03-02T09:03:42;100524.72;;;9.35;100.00
23241;BME280;11789;53.482;9.862;2024-03-02T09:06:10;100526.47;;;9.33;100.00
23241;BME280;11789;53.482;9.862;2024-03-02T09:08:35;100527.31;;;9.20;100.00
23241;BME280;11789;53.482;9.862;2024-03-02T09:11:02;100526.47;;;9.19;100.00
23241;BME280;11789;53.482;9.862;2024-03-02T09:13:28;100530.75;;;9.28;100.00
23241;BME280;11789;53.482;9.862;2024-03-02T09:15:54;100534.16;;;9.38;100.00
23241;BME280;11789;53.482;9.862;2024-03-02T09:18:20;100535.03;;;9.55;100.00
23241;BME280;11789;53.482;9.862;2024-03-02T09:20:45;100536.72;;;9.67;99.93
23241;BME280;11789;53.482;9.862;2024-03-02T09:23:11;100541.84;;;9.77;99.64
23241;BME280;11789;53.482;9.862;2024-03-02T09:25:37;100534.94;;;9.85;98.04
23241;BME280;11789;53.482;9.862;2024-03-02T09:28:02;100534.06;;;9.90;96.48
23241;BME280;11789;53.482;9.862;2024-03-02T09:30:28;100533.19;;;10.00;96.20
23241;BME280;11789;53.482;9.862;2024-03-02T09:32:54;100524.47;;;10.24;95.70
23241;BME280;11789;53.482;9.862;2024-03-02T09:35:19;100529.56;;;10.39;94.44
23241;BME280;11789;53.482;9.862;2024-03-02T09:37:45;100525.19;;;10.56;92.80
23241;BME280;11789;53.482;9.862;2024-03-02T09:40:11;100519.06;;;10.70;92.78
23241;BME280;11789;53.482;9.862;2024-03-02T09:42:37;100529.38;;;10.71;90.66
23241;BME280;11789;53.482;9.862;2024-03-02T09:45:03;100526.72;;;10.82;91.75
23241;BME280;11789;53.482;9.862;2024-03-02T09:47:28;100529.38;;;10.71;88.96
23241;BME280;11789;53.482;9.862;2024-03-02T09:49:54;100536.31;;;10.68;89.59
23241;BME280;11789;53.482;9.862;2024-03-02T09:52:22;100528.50;;;10.74;89.62
23241;BME280;11789;53.482;9.862;2024-03-02T09:54:48;100527.56;;;10.84;89.64
23241;BME280;11789;53.482;9.862;2024-03-02T09:57:14;100529.25;;;10.89;88.79
23241;BME280;11789;53.482;9.862;2024-03-02T09:59:39;100524.94;;;10.91;87.64
23241;BME280;11789;53.482;9.862;2024-03-02T10:02:05;100527.50;;;10.96;88.12
23241;BME280;11789;53.482;9.862;2024-03-02T10:04:32;100527.50;;;10.93;87.41
23241;BME280;11789;53.482;9.862;2024-03-02T10:07:12;100530.94;;;10.94;87.41
23241;BME280;11789;53.482;9.862;2024-03-02T10:09:38;100525.81;;;10.89;86.01
23241;BME280;11789;53.482;9.862;2024-03-02T10:12:05;100521.47;;;10.93;86.89
23241;BME280;11789;53.482;9.862;2024-03-02T10:14:30;100524.87;;;10.95;86.43
23241;BME280;11789;53.482;9.862;2024-03-02T10:17:02;100527.50;;;10.96;87.33
23241;BME280;11789;53.482;9.862;2024-03-02T10:19:28;100526.66;;;10.89;86.99
23241;BME280;11789;53.482;9.862;2024-03-02T10:21:57;100527.53;;;10.91;87.54
23241;BME280;11789;53.482;9.862;2024-03-02T10:24:23;100530.09;;;10.93;86.91
23241;BME280;11789;53.482;9.862;2024-03-02T10:26:49;100533.66;;;10.80;84.69
23241;BME280;11789;53.482;9.862;2024-03-02T10:29:15;100528.47;;;10.80;87.22
23241;BME280;11789;53.482;9.862;2024-03-02T10:31:43;100532.72;;;10.84;87.29
23241;BME280;11789;53.482;9.862;2024-03-02T10:34:10;100531.87;;;10.83;87.50
23241;BME280;11789;53.482;9.862;2024-03-02T10:36:37;100541.38;;;10.83;85.94
23241;BME280;11789;53.482;9.862;2024-03-02T10:39:04;100537.91;;;10.85;87.24
23241;BME280;11789;53.482;9.862;2024-03-02T10:41:33;100537.88;;;10.90;87.17
23241;BME280;11789;53.482;9.862;2024-03-02T10:44:02;100541.31;;;10.92;87.07
23241;BME280;11789;53.482;9.862;2024-03-02T10:46:29;100541.34;;;10.86;84.98
23241;BME280;11789;53.482;9.862;2024-03-02T10:48:59;100537.88;;;10.90;85.73
23241;BME280;11789;53.482;9.862;2024-03-02T10:51:26;100540.44;;;10.93;85.12
23241;BME280;11789;53.482;9.862;2024-03-02T10:53:54;100536.13;;;10.94;85.00
23241;BME280;11789;53.482;9.862;2024-03-02T10:56:30;100542.13;;;10.94;84.41
23241;BME280;11789;53.482;9.862;2024-03-02T11:01:39;100548.19;;;10.93;84.48
23241;BME280;11789;53.482;9.862;2024-03-02T11:04:08;100549.91;;;10.93;84.21
23241;BME280;11789;53.482;9.862;2024-03-02T11:06:35;100550.75;;;10.98;83.93
23241;BME280;11789;53.482;9.862;2024-03-02T11:09:07;100551.66;;;10.95;84.07
23241;BME280;11789;53.482;9.862;2024-03-02T11:11:40;100551.59;;;10.98;82.91
23241;BME280;11789;53.482;9.862;2024-03-02T11:14:11;100551.63;;;10.97;82.28
23241;BME280;11789;53.482;9.862;2024-03-02T11:16:38;100558.50;;;10.98;81.89
23241;BME280;11789;53.482;9.862;2024-03-02T11:19:09;100553.34;;;10.96;80.80
23241;BME280;11789;53.482;9.862;2024-03-02T11:21:35;100558.53;;;10.96;81.26
23241;BME280;11789;53.482;9.862;2024-03-02T11:26:51;100556.75;;;11.01;81.61
23241;BME280;11789;53.482;9.862;2024-03-02T11:32:01;100565.34;;;11.03;81.53
23241;BME280;11789;53.482;9.862;2024-03-02T11:34:31;100571.41;;;11.05;79.94
23241;BME280;11789;53.482;9.862;2024-03-02T11:36:58;100564.47;;;11.07;80.50
23241;BME280;11789;53.482;9.862;2024-03-02T11:39:25;100567.03;;;11.12;81.87
23241;BME280;11789;53.482;9.862;2024-03-02T11:41:51;100566.13;;;11.16;81.37
23241;BME280;11789;53.482;9.862;2024-03-02T11:44:17;100565.25;;;11.18;82.29
23241;BME280;11789;53.482;9.862;2024-03-02T11:46:45;100574.75;;;11.18;81.34
23241;BME280;11789;53.482;9.862;2024-03-02T11:49:14;100569.53;;;11.21;82.15
23241;BME280;11789;53.482;9.862;2024-03-02T11:51:53;100572.97;;;11.23;82.78
23241;BME280;11789;53.482;9.862;2024-03-02T11:54:26;100568.66;;;11.22;82.27
23241;BME280;11789;53.482;9.862;2024-03-02T11:56:54;100572.13;;;11.23;81.68
23241;BME280;11789;53.482;9.862;2024-03-02T11:59:20;100566.09;;;11.21;81.54
23241;BME280;11789;53.482;9.862;2024-03-02T12:01:47;100565.19;;;11.25;82.82
23241;BME280;11789;53.482;9.862;2024-03-02T12:04:13;100559.16;;;11.26;82.41
23241;BME280;11789;53.482;9.862;2024-03-02T12:06:39;100563.47;;;11.24;82.50
23241;BME280;11789;53.482;9.862;2024-03-02T12:09:04;100568.63;;;11.27;81.67
23241;BME280;11789;53.482;9.862;2024-03-02T12:11:30;100562.59;;;11.26;81.67
23241;BME280;11789;53.482;9.862;2024-03-02T12:13:55;100555.69;;;11.25;81.89
23241;BME280;11789;53.482;9.862;2024-03-02T12:16:26;100554.81;;;11.28;81.85
23241;BME280;11789;53.482;9.862;2024-03-02T12:18:51;100552.22;;;11.31;82.00
23241;BME280;11789;53.482;9.862;2024-03-02T12:21:16;100549.59;;;11.34;81.54
23241;BME280;11789;53.482;9.862;2024-03-02T12:23:42;100546.13;;;11.33;80.81
23241;BME280;11789;53.482;9.862;2024-03-02T12:26:07;100543.56;;;11.33;80.74
23241;BME280;11789;53.482;9.862;2024-03-02T12:28:34;100545.28;;;11.33;79.96
23241;BME280;11789;53.482;9.862;2024-03-02T12:31:00;100537.53;;;11.31;80.14
23241;BME280;11789;53.482;9.862;2024-03-02T12:33:25;100539.25;;;11.32;79.05
23241;BME280;11789;53.482;9.862;2024-03-02T12:35:52;100539.22;;;11.34;79.69
23241;BME280;11789;53.482;9.862;2024-03-02T12:38:17;100539.25;;;11.32;78.33
23241;BME280;11789;53.482;9.862;2024-03-02T12:40:43;100538.41;;;11.32;79.02
23241;BME280;11789;53.482;9.862;2024-03-02T12:43:08;100534.06;;;11.34;78.90
23241;BME280;11789;53.482;9.862;2024-03-02T12:45:34;100530.59;;;11.35;78.78
23241;BME280;11789;53.482;9.862;2024-03-02T12:48:00;100534.00;;;11.40;79.41
23241;BME280;11789;53.482;9.862;2024-03-02T12:50:27;100532.25;;;11.43;78.96
23241;BME280;11789;53.482;9.862;2024-03-02T12:52:53;100534.81;;;11.45;79.77
23241;BME280;11789;53.482;9.862;2024-03-02T12:55:20;100536.56;;;11.43;78.54
23241;BME280;11789;53.482;9.862;2024-03-02T12:57:46;100537.41;;;11.43;78.58